Meteorología y climatología de Navarra
Datos de la estación - Meteo Navarra

Estación de Carrascal GN

Altitud 568 m.


Datos desde el 07/12/2018 hasta el 08/12/2018 en horario solar
Los datos son PROVISIONALES

Anterior Página 1 de 1 Siguiente Descargar: Formato para Excel 2000 o superior   Formato csv   Formato para OpenOffice Calc
Fecha Temperatura Humedad relativa Radiación global Insolación Precipitación Velocidad viento 10 m Velocidad viento 10 m Dirección viento 10 m
ºC % W/m² s l/m² m/s km/h º
07/12/2018 0:00 5.8 91 0.0 0 0.0 2.8 10.2 14
07/12/2018 0:10 5.8 91 0.0 0 0.0 3.0 10.8 7
07/12/2018 0:20 5.6 91 0.0 0 0.0 3.3 12.0 347
07/12/2018 0:30 5.4 92 0.0 0 0.0 3.1 11.3 347
07/12/2018 0:40 5.5 92 0.0 0 0.0 2.3 8.3 353
07/12/2018 0:50 5.1 91 0.0 0 0.0 2.2 7.8 3
07/12/2018 1:00 4.9 93 0.0 0 0.0 2.2 8.0 4
07/12/2018 1:10 5.3 93 0.0 0 0.0 2.1 7.7 8
07/12/2018 1:20 5.4 92 0.0 0 0.0 1.9 6.9 7
07/12/2018 1:30 5.2 92 0.0 0 0.0 1.8 6.4 360
07/12/2018 1:40 5.1 90 0.0 0 0.0 0.5 1.7 320
07/12/2018 1:50 4.8 94 0.0 0 0.0 0.3 1.2 353
07/12/2018 2:00 4.3 94 0.0 0 0.0 0.4 1.4 350
07/12/2018 2:10 3.9 95 0.0 0 0.0 1.0 3.6 187
07/12/2018 2:20 3.6 96 0.0 0 0.0 1.2 4.2 187
07/12/2018 2:30 4.0 97 0.0 0 0.0 0.8 2.7 195
07/12/2018 2:40 3.1 96 0.0 0 0.0 1.8 6.5 195
07/12/2018 2:50 3.1 97 0.0 0 0.0 1.9 6.9 186
07/12/2018 3:00 3.0 97 0.0 0 0.0 1.6 5.9 186
07/12/2018 3:10 3.2 97 0.0 0 0.0 1.4 5.1 184
07/12/2018 3:20 3.0 97 0.0 0 0.0 1.3 4.7 180
07/12/2018 3:30 3.0 97 0.0 0 0.0 2.0 7.2 198
07/12/2018 3:40 3.1 97 0.0 0 0.0 1.3 4.6 180
07/12/2018 3:50 3.3 97 0.0 0 0.0 1.3 4.8 151
07/12/2018 4:00 3.3 97 0.0 0 0.0 0.9 3.1 169
07/12/2018 4:10 3.2 96 0.0 0 0.0 1.7 6.0 203
07/12/2018 4:20 3.0 96 0.0 0 0.0 1.9 7.0 192
07/12/2018 4:30 2.9 96 0.0 0 0.0 2.3 8.1 196
07/12/2018 4:40 2.5 97 0.0 0 0.0 2.2 7.8 219
07/12/2018 4:50 2.7 97 0.0 0 0.0 2.2 7.8 214
07/12/2018 5:00 2.6 97 0.0 0 0.0 2.0 7.3 217
07/12/2018 5:10 2.8 97 0.0 0 0.0 2.6 9.4 214
07/12/2018 5:20 2.5 96 0.0 0 0.0 2.9 10.4 203
07/12/2018 5:30 2.0 96 0.0 0 0.0 2.1 7.6 212
07/12/2018 5:40 2.0 97 0.0 0 0.0 2.3 8.4 231
07/12/2018 5:50 2.8 97 0.0 0 0.0 2.5 9.0 227
07/12/2018 6:00 2.6 96 0.0 0 0.0 2.7 9.7 218
07/12/2018 6:10 2.2 96 0.0 0 0.0 1.7 6.0 203
07/12/2018 6:20 2.2 97 0.0 0 0.0 1.3 4.8 150
07/12/2018 6:30 3.4 98 0.0 0 0.0 0.6 2.2 169
07/12/2018 6:40 3.2 96 0.0 0 0.0 0.5 1.6 198
07/12/2018 6:50 3.2 96 0.0 0 0.0 0.8 2.8 75
07/12/2018 7:00 2.9 95 0.0 0 0.0 0.9 3.2 55
07/12/2018 7:10 2.1 96 0.0 0 0.0 1.1 4.0 28
07/12/2018 7:20 1.8 97 0.0 0 0.0 0.9 3.4 31
07/12/2018 7:30 1.9 97 0.0 0 0.0 1.1 4.1 34
07/12/2018 7:40 1.6 97 0.0 0 0.0 2.4 8.5 35
07/12/2018 7:50 1.2 97 0.0 0 0.0 2.7 9.9 46
07/12/2018 8:00 1.0 98 7.8 0 0.0 3.7 13.4 45
07/12/2018 8:10 1.3 98 41.7 60 0.0 3.6 12.9 48
07/12/2018 8:20 1.2 98 51.1 108 0.0 3.2 11.3 54
07/12/2018 8:30 1.2 99 86.9 580 0.0 3.8 13.7 55
07/12/2018 8:40 1.5 99 105.5 532 0.0 3.8 13.6 49
07/12/2018 8:50 1.7 99 99.5 236 0.0 3.6 13.0 47
07/12/2018 9:00 1.9 99 113.9 348 0.0 3.3 12.0 53
07/12/2018 9:10 1.9 99 146.3 524 0.0 2.6 9.4 63
07/12/2018 9:20 1.9 99 197.8 600 0.0 3.1 11.0 62
07/12/2018 9:30 2.1 99 204.4 586 0.0 2.8 10.2 59
07/12/2018 9:40 2.3 99 220.2 586 0.0 2.3 8.1 58
07/12/2018 9:50 2.6 99 271.4 600 0.0 1.4 5.1 47
07/12/2018 10:00 3.0 99 292.2 600 0.0 1.1 3.8 18
07/12/2018 10:10 3.5 99 298.2 600 0.0 1.9 6.7 45
07/12/2018 10:20 3.5 99 327.0 600 0.0 1.5 5.3 53
07/12/2018 10:30 4.2 99 362.2 600 0.0 1.0 3.7 54
07/12/2018 10:40 5.4 99 378.4 600 0.0 1.0 3.6 220
07/12/2018 10:50 6.8 99 391.7 600 0.0 2.8 10.1 225
07/12/2018 11:00 7.7 96 398.3 600 0.0 3.6 12.9 221
07/12/2018 11:10 8.1 88 405.7 600 0.0 3.1 11.1 204
07/12/2018 11:20 8.5 84 410.1 600 0.0 2.0 7.3 149
07/12/2018 11:30 5.6 91 411.0 600 0.0 3.2 11.3 55
07/12/2018 11:40 5.1 96 421.6 600 0.0 2.3 8.1 51
07/12/2018 11:50 5.7 96 400.6 600 0.0 1.4 4.9 45
07/12/2018 12:00 5.9 93 415.1 600 0.0 1.9 6.8 57
07/12/2018 12:10 6.0 93 425.2 600 0.0 3.3 11.8 47
07/12/2018 12:20 6.0 94 420.2 600 0.0 3.2 11.3 46
07/12/2018 12:30 5.8 94 416.2 600 0.0 3.4 12.1 54
07/12/2018 12:40 5.9 95 410.8 600 0.0 2.7 9.8 44
07/12/2018 12:50 6.1 94 403.1 600 0.0 4.0 14.3 44
07/12/2018 13:00 6.3 93 394.3 600 0.0 3.8 13.7 52
07/12/2018 13:10 6.6 91 383.1 600 0.0 3.5 12.6 51
07/12/2018 13:20 6.9 88 392.4 600 0.0 2.8 10.2 50
07/12/2018 13:30 7.3 87 358.8 560 0.0 3.2 11.4 54
07/12/2018 13:40 7.8 86 211.3 246 0.0 3.1 11.2 37
07/12/2018 13:50 7.9 86 257.2 600 0.0 3.8 13.7 36
07/12/2018 14:00 7.9 87 354.9 600 0.0 3.6 12.8 47
07/12/2018 14:10 7.8 85 300.1 600 0.0 3.0 10.7 43
07/12/2018 14:20 8.1 84 279.2 600 0.0 2.7 9.6 54
07/12/2018 14:30 8.3 83 257.2 600 0.0 2.1 7.4 50
07/12/2018 14:40 8.4 82 237.4 600 0.0 1.7 6.2 42
07/12/2018 14:50 9.1 81 248.2 600 0.0 1.3 4.6 23
07/12/2018 15:00 9.4 79 220.5 488 0.0 2.2 7.9 47
07/12/2018 15:10 9.7 77 86.5 0 0.0 2.2 8.0 50
07/12/2018 15:20 9.8 77 86.6 38 0.0 2.8 10.1 52
07/12/2018 15:30 9.7 75 52.3 0 0.0 3.4 12.3 36
07/12/2018 15:40 9.7 74 29.4 0 0.0 4.0 14.3 22
07/12/2018 15:50 9.7 73 7.9 0 0.0 3.8 13.7 23
07/12/2018 16:00 9.4 76 0.0 0 0.0 3.6 13.1 32
07/12/2018 16:10 9.1 78 0.0 0 0.0 3.9 14.1 41
07/12/2018 16:20 8.9 78 0.0 0 0.0 3.7 13.3 34
07/12/2018 16:30 9.1 77 0.0 0 0.0 3.7 13.4 19
07/12/2018 16:40 9.3 75 0.0 0 0.0 3.9 14.2 31
07/12/2018 16:50 9.2 76 0.0 0 0.0 3.6 12.9 33
07/12/2018 17:00 9.5 76 0.0 0 0.0 4.8 17.4 36
07/12/2018 17:10 9.8 75 0.0 0 0.0 4.4 16.0 32
07/12/2018 17:20 9.7 77 0.0 0 0.0 3.8 13.7 32
07/12/2018 17:30 9.6 78 0.0 0 0.0 3.0 10.9 25
07/12/2018 17:40 9.6 79 0.0 0 0.0 2.9 10.6 16
07/12/2018 17:50 9.8 80 0.0 0 0.0 2.9 10.4 15
07/12/2018 18:00 9.7 79 0.0 0 0.0 2.8 10.2 8
07/12/2018 18:10 9.8 80 0.0 0 0.0 4.0 14.4 29
07/12/2018 18:20 9.4 81 0.0 0 0.0 3.6 13.0 31
07/12/2018 18:30 9.3 82 0.0 0 0.0 4.0 14.4 42
07/12/2018 18:40 9.4 84 0.0 0 0.0 3.7 13.2 26
07/12/2018 18:50 10.2 81 0.0 0 0.0 4.7 17.0 335
07/12/2018 19:00 10.4 81 0.0 0 0.0 4.0 14.3 17
07/12/2018 19:10 10.2 82 0.0 0 0.0 4.8 17.2 13
07/12/2018 19:20 9.8 84 0.0 0 0.0 5.5 19.7 15
07/12/2018 19:30 9.9 86 0.0 0 0.0 7.8 28.0 14
07/12/2018 19:40 9.5 89 0.0 0 0.0 9.5 34.3 14
07/12/2018 19:50 9.4 87 0.0 0 0.0 12.2 43.8 10
07/12/2018 20:00 9.3 87 0.0 0 0.0 12.0 43.3 4
07/12/2018 20:10 9.2 87 0.0 0 0.0 10.3 37.2 6
07/12/2018 20:20 9.3 87 0.0 0 0.0 10.0 36.0 7
07/12/2018 20:30 9.2 88 0.0 0 0.0 9.2 33.0 5
07/12/2018 20:40 8.9 90 0.0 0 0.0 9.7 34.7 7
07/12/2018 20:50 8.7 91 0.0 0 0.0 10.3 37.2 16
07/12/2018 21:00 8.3 93 0.0 0 0.0 9.1 32.6 18
07/12/2018 21:10 8.3 94 0.0 0 0.0 7.4 26.6 22
07/12/2018 21:20 8.1 93 0.0 0 0.0 7.6 27.5 21
07/12/2018 21:30 8.1 94 0.0 0 0.0 8.2 29.6 22
07/12/2018 21:40 7.9 94 0.0 0 0.0 7.3 26.4 32
07/12/2018 21:50 7.8 90 0.0 0 0.0 8.3 30.0 32
07/12/2018 22:00 7.9 88 0.0 0 0.0 9.5 34.2 35
07/12/2018 22:10 7.7 88 0.0 0 0.0 8.5 30.7 36
07/12/2018 22:20 7.5 89 0.0 0 0.0 6.6 23.8 28
07/12/2018 22:30 7.3 90 0.0 0 0.0 6.7 24.2 28
07/12/2018 22:40 7.3 90 0.0 0 0.0 7.4 26.7 31
07/12/2018 22:50 7.2 92 0.0 0 0.0 6.5 23.2 30
07/12/2018 23:00 6.9 93 0.0 0 0.0 6.5 23.5 33
07/12/2018 23:10 6.8 94 0.0 0 0.0 5.8 20.8 25
07/12/2018 23:20 6.9 94 0.0 0 0.0 6.1 22.1 30
07/12/2018 23:30 7.0 92 0.0 0 0.0 6.3 22.6 34
07/12/2018 23:40 7.0 91 0.0 0 0.0 5.6 20.0 30
07/12/2018 23:50 7.0 91 0.0 0 0.0 6.6 23.6 34
Anterior Página 1 de 1 Siguiente

NOTA: Tipo de datos según el color:
   - Valores diarios o 10 minutos correctos
   - Valores diarios calculados a partir de un número de datos 10 minutos menor que 144 y mayor que 120, o de un número de datos semihorarios menor que 48 y mayor que 40 (caso de las estaciones de Riegos de Navarra y del MARM)
   - Valores diez minutos estimados


Contacto        Enlaces        Aviso legal